sensor_id;sensor_type;location;lat;lon;timestamp;noise_LAeq;noise_LA_min;noise_LA_max;noise_LA01;noise_LA95
72415;Laerm;60995;52.154;4.498;2023-10-09T00:02:03;42.09;36.51;51.47;;
72415;Laerm;60995;52.154;4.498;2023-10-09T00:04:23;42.50;36.50;52.26;;
72415;Laerm;60995;52.154;4.498;2023-10-09T00:06:40;41.96;36.34;51.54;;
72415;Laerm;60995;52.154;4.498;2023-10-09T00:08:59;42.09;35.66;52.99;;
72415;Laerm;60995;52.154;4.498;2023-10-09T00:11:27;42.13;36.06;54.10;;
72415;Laerm;60995;52.154;4.498;2023-10-09T00:13:47;42.86;35.63;52.66;;
72415;Laerm;60995;52.154;4.498;2023-10-09T00:16:13;42.79;36.05;52.05;;
72415;Laerm;60995;52.154;4.498;2023-10-09T00:18:30;42.55;35.75;52.77;;
72415;Laerm;60995;52.154;4.498;2023-10-09T00:20:49;42.58;35.55;61.73;;
72415;Laerm;60995;52.154;4.498;2023-10-09T00:23:11;42.29;36.02;53.04;;
72415;Laerm;60995;52.154;4.498;2023-10-09T00:25:31;42.61;36.06;53.75;;
72415;Laerm;60995;52.154;4.498;2023-10-09T00:27:52;42.24;36.10;53.00;;
72415;Laerm;60995;52.154;4.498;2023-10-09T00:30:10;42.47;35.76;53.17;;
72415;Laerm;60995;52.154;4.498;2023-10-09T00:32:31;42.43;36.46;53.42;;
72415;Laerm;60995;52.154;4.498;2023-10-09T00:34:49;42.76;36.20;53.96;;
72415;Laerm;60995;52.154;4.498;2023-10-09T00:37:09;41.58;34.44;53.36;;
72415;Laerm;60995;52.154;4.498;2023-10-09T00:39:32;41.53;34.47;52.53;;
72415;Laerm;60995;52.154;4.498;2023-10-09T00:41:54;41.61;34.88;53.01;;
72415;Laerm;60995;52.154;4.498;2023-10-09T00:44:10;41.96;34.61;53.57;;
72415;Laerm;60995;52.154;4.498;2023-10-09T00:46:27;41.70;34.27;52.99;;
72415;Laerm;60995;52.154;4.498;2023-10-09T00:48:45;42.83;35.42;52.52;;
72415;Laerm;60995;52.154;4.498;2023-10-09T00:51:04;42.79;36.05;53.16;;
72415;Laerm;60995;52.154;4.498;2023-10-09T00:53:34;42.37;35.99;54.12;;
72415;Laerm;60995;52.154;4.498;2023-10-09T00:55:51;42.73;35.43;52.75;;
72415;Laerm;60995;52.154;4.498;2023-10-09T00:58:14;43.40;36.16;53.70;;
72415;Laerm;60995;52.154;4.498;2023-10-09T01:00:31;42.45;34.14;53.76;;
72415;Laerm;60995;52.154;4.498;2023-10-09T01:03:05;41.83;34.06;52.87;;
72415;Laerm;60995;52.154;4.498;2023-10-09T01:05:55;42.12;34.51;52.71;;
72415;Laerm;60995;52.154;4.498;2023-10-09T01:08:15;41.52;34.19;52.29;;
72415;Laerm;60995;52.154;4.498;2023-10-09T01:10:47;41.31;33.77;52.44;;
72415;Laerm;60995;52.154;4.498;2023-10-09T01:13:08;41.46;34.00;52.25;;
72415;Laerm;60995;52.154;4.498;2023-10-09T01:15:25;41.64;34.18;53.71;;
72415;Laerm;60995;52.154;4.498;2023-10-09T01:18:01;41.41;34.15;52.82;;
72415;Laerm;60995;52.154;4.498;2023-10-09T01:20:22;41.89;34.69;52.06;;
72415;Laerm;60995;52.154;4.498;2023-10-09T01:22:46;41.74;34.17;53.27;;
72415;Laerm;60995;52.154;4.498;2023-10-09T01:25:04;41.85;34.27;52.41;;
72415;Laerm;60995;52.154;4.498;2023-10-09T01:27:22;43.51;34.69;54.47;;
72415;Laerm;60995;52.154;4.498;2023-10-09T01:29:43;42.17;34.29;52.90;;
72415;Laerm;60995;52.154;4.498;2023-10-09T01:32:00;41.73;34.26;52.30;;
72415;Laerm;60995;52.154;4.498;2023-10-09T01:34:19;41.81;34.48;52.54;;
72415;Laerm;60995;52.154;4.498;2023-10-09T01:36:40;41.77;34.18;53.89;;
72415;Laerm;60995;52.154;4.498;2023-10-09T01:39:01;42.22;34.25;53.24;;
72415;Laerm;60995;52.154;4.498;2023-10-09T01:41:48;41.33;34.26;52.74;;
72415;Laerm;60995;52.154;4.498;2023-10-09T01:44:05;41.61;34.26;52.66;;
72415;Laerm;60995;52.154;4.498;2023-10-09T01:46:26;41.67;34.09;52.57;;
72415;Laerm;60995;52.154;4.498;2023-10-09T01:48:42;42.62;34.24;54.78;;
72415;Laerm;60995;52.154;4.498;2023-10-09T01:51:02;42.01;34.13;53.30;;
72415;Laerm;60995;52.154;4.498;2023-10-09T01:53:21;41.70;34.04;53.25;;
72415;Laerm;60995;52.154;4.498;2023-10-09T01:55:41;41.60;34.52;52.74;;
72415;Laerm;60995;52.154;4.498;2023-10-09T01:58:05;41.87;34.06;53.59;;
72415;Laerm;60995;52.154;4.498;2023-10-09T02:00:26;41.82;34.56;53.35;;
72415;Laerm;60995;52.154;4.498;2023-10-09T02:02:45;41.94;34.44;53.42;;
72415;Laerm;60995;52.154;4.498;2023-10-09T02:05:04;42.33;34.24;52.48;;
72415;Laerm;60995;52.154;4.498;2023-10-09T02:07:30;42.79;34.78;52.82;;
72415;Laerm;60995;52.154;4.498;2023-10-09T02:09:56;42.82;34.24;58.30;;
72415;Laerm;60995;52.154;4.498;2023-10-09T02:12:13;42.37;34.86;55.03;;
72415;Laerm;60995;52.154;4.498;2023-10-09T02:14:29;41.88;34.62;52.34;;
72415;Laerm;60995;52.154;4.498;2023-10-09T02:16:49;42.77;34.68;52.63;;
72415;Laerm;60995;52.154;4.498;2023-10-09T02:19:23;42.19;34.60;52.47;;
72415;Laerm;60995;52.154;4.498;2023-10-09T02:22:06;42.13;34.40;53.77;;
72415;Laerm;60995;52.154;4.498;2023-10-09T02:24:31;41.90;34.28;52.93;;
72415;Laerm;60995;52.154;4.498;2023-10-09T02:27:06;41.80;34.33;52.45;;
72415;Laerm;60995;52.154;4.498;2023-10-09T02:29:22;42.04;33.95;53.34;;
72415;Laerm;60995;52.154;4.498;2023-10-09T02:31:41;42.36;34.27;52.83;;
72415;Laerm;60995;52.154;4.498;2023-10-09T02:34:00;41.89;34.55;52.96;;
72415;Laerm;60995;52.154;4.498;2023-10-09T02:36:23;42.05;34.46;52.60;;
72415;Laerm;60995;52.154;4.498;2023-10-09T02:38:40;42.43;34.35;53.05;;
72415;Laerm;60995;52.154;4.498;2023-10-09T02:40:58;42.50;34.51;53.39;;
72415;Laerm;60995;52.154;4.498;2023-10-09T02:43:20;41.77;34.62;52.90;;
72415;Laerm;60995;52.154;4.498;2023-10-09T02:45:37;41.94;34.82;53.00;;
72415;Laerm;60995;52.154;4.498;2023-10-09T02:48:03;41.83;34.96;53.23;;
72415;Laerm;60995;52.154;4.498;2023-10-09T02:50:26;42.90;35.15;52.11;;
72415;Laerm;60995;52.154;4.498;2023-10-09T02:52:45;42.24;35.04;53.29;;
72415;Laerm;60995;52.154;4.498;2023-10-09T02:55:03;42.16;35.05;53.62;;
72415;Laerm;60995;52.154;4.498;2023-10-09T02:57:28;41.95;35.35;54.28;;
72415;Laerm;60995;52.154;4.498;2023-10-09T02:59:52;41.98;35.10;54.24;;
72415;Laerm;60995;52.154;4.498;2023-10-09T03:02:08;42.02;34.93;53.41;;
72415;Laerm;60995;52.154;4.498;2023-10-09T03:04:27;42.66;34.71;57.53;;
72415;Laerm;60995;52.154;4.498;2023-10-09T03:06:47;41.83;34.51;53.12;;
72415;Laerm;60995;52.154;4.498;2023-10-09T03:09:07;42.32;34.64;52.91;;
72415;Laerm;60995;52.154;4.498;2023-10-09T03:11:32;42.43;35.15;57.53;;
72415;Laerm;60995;52.154;4.498;2023-10-09T03:13:48;43.39;35.33;58.42;;
72415;Laerm;60995;52.154;4.498;2023-10-09T03:16:05;43.37;35.68;53.56;;
72415;Laerm;60995;52.154;4.498;2023-10-09T03:18:21;42.88;35.34;52.97;;
72415;Laerm;60995;52.154;4.498;2023-10-09T03:20:37;42.29;35.51;53.73;;
72415;Laerm;60995;52.154;4.498;2023-10-09T03:22:54;47.66;35.84;61.86;;
72415;Laerm;60995;52.154;4.498;2023-10-09T03:25:10;44.12;36.18;53.50;;
72415;Laerm;60995;52.154;4.498;2023-10-09T03:27:33;43.05;36.45;52.60;;
72415;Laerm;60995;52.154;4.498;2023-10-09T03:29:50;43.14;35.94;52.89;;
72415;Laerm;60995;52.154;4.498;2023-10-09T03:32:09;44.04;35.50;54.33;;
72415;Laerm;60995;52.154;4.498;2023-10-09T03:34:27;43.07;35.22;53.02;;
72415;Laerm;60995;52.154;4.498;2023-10-09T03:36:45;42.40;35.01;52.79;;
72415;Laerm;60995;52.154;4.498;2023-10-09T03:39:05;43.35;36.51;55.91;;
72415;Laerm;60995;52.154;4.498;2023-10-09T03:41:34;43.80;35.88;52.40;;
72415;Laerm;60995;52.154;4.498;2023-10-09T03:43:57;43.19;36.02;52.65;;
72415;Laerm;60995;52.154;4.498;2023-10-09T03:46:15;42.87;35.87;53.28;;
72415;Laerm;60995;52.154;4.498;2023-10-09T03:48:36;44.16;36.80;55.42;;
72415;Laerm;60995;52.154;4.498;2023-10-09T03:50:53;44.35;36.14;53.96;;
72415;Laerm;60995;52.154;4.498;2023-10-09T03:53:25;43.05;35.64;52.55;;
72415;Laerm;60995;52.154;4.498;2023-10-09T03:55:41;43.36;36.16;52.25;;
72415;Laerm;60995;52.154;4.498;2023-10-09T03:57:58;42.91;35.79;52.68;;
72415;Laerm;60995;52.154;4.498;2023-10-09T04:00:16;44.62;37.06;53.70;;
72415;Laerm;60995;52.154;4.498;2023-10-09T04:02:33;45.38;37.28;53.09;;
72415;Laerm;60995;52.154;4.498;2023-10-09T04:04:49;43.84;36.59;55.43;;
72415;Laerm;60995;52.154;4.498;2023-10-09T04:07:06;45.38;36.13;54.97;;
72415;Laerm;60995;52.154;4.498;2023-10-09T04:09:23;45.53;36.37;53.49;;
72415;Laerm;60995;52.154;4.498;2023-10-09T04:11:39;44.53;36.93;53.53;;
72415;Laerm;60995;52.154;4.498;2023-10-09T04:13:59;43.61;36.29;54.51;;
72415;Laerm;60995;52.154;4.498;2023-10-09T04:16:17;46.12;37.13;58.21;;
72415;Laerm;60995;52.154;4.498;2023-10-09T04:18:46;44.73;37.17;55.39;;
72415;Laerm;60995;52.154;4.498;2023-10-09T04:21:04;45.74;37.64;54.17;;
72415;Laerm;60995;52.154;4.498;2023-10-09T04:23:46;44.23;37.18;54.72;;
72415;Laerm;60995;52.154;4.498;2023-10-09T04:26:26;46.81;37.93;56.22;;
72415;Laerm;60995;52.154;4.498;2023-10-09T04:28:42;46.72;38.04;53.90;;
72415;Laerm;60995;52.154;4.498;2023-10-09T04:30:58;45.63;36.99;54.56;;
72415;Laerm;60995;52.154;4.498;2023-10-09T04:33:19;45.25;37.22;53.07;;
72415;Laerm;60995;52.154;4.498;2023-10-09T04:36:06;44.22;36.39;53.39;;
72415;Laerm;60995;52.154;4.498;2023-10-09T04:38:35;48.02;37.96;63.57;;
72415;Laerm;60995;52.154;4.498;2023-10-09T04:40:53;46.83;37.19;56.70;;
72415;Laerm;60995;52.154;4.498;2023-10-09T04:43:15;46.06;37.69;53.99;;
72415;Laerm;60995;52.154;4.498;2023-10-09T04:45:36;46.19;37.91;54.68;;
72415;Laerm;60995;52.154;4.498;2023-10-09T04:48:11;47.67;38.14;56.86;;
72415;Laerm;60995;52.154;4.498;2023-10-09T04:50:27;46.48;37.70;57.24;;
72415;Laerm;60995;52.154;4.498;2023-10-09T04:52:46;45.59;37.89;53.28;;
72415;Laerm;60995;52.154;4.498;2023-10-09T04:55:07;46.95;38.27;56.89;;
72415;Laerm;60995;52.154;4.498;2023-10-09T04:57:27;46.23;37.60;53.49;;
72415;Laerm;60995;52.154;4.498;2023-10-09T04:59:44;46.05;37.46;54.03;;
72415;Laerm;60995;52.154;4.498;2023-10-09T05:02:04;47.11;38.54;56.20;;
72415;Laerm;60995;52.154;4.498;2023-10-09T05:04:24;47.08;39.60;54.12;;
72415;Laerm;60995;52.154;4.498;2023-10-09T05:06:57;45.94;36.85;53.78;;
72415;Laerm;60995;52.154;4.498;2023-10-09T05:09:13;47.31;38.75;55.30;;
72415;Laerm;60995;52.154;4.498;2023-10-09T05:11:30;45.81;37.03;56.00;;
72415;Laerm;60995;52.154;4.498;2023-10-09T05:14:13;47.37;38.90;55.28;;
72415;Laerm;60995;52.154;4.498;2023-10-09T05:16:29;46.24;39.75;52.76;;
72415;Laerm;60995;52.154;4.498;2023-10-09T05:18:47;46.48;37.56;54.39;;
72415;Laerm;60995;52.154;4.498;2023-10-09T05:21:12;47.38;38.15;59.06;;
72415;Laerm;60995;52.154;4.498;2023-10-09T05:23:28;45.31;37.28;52.60;;
72415;Laerm;60995;52.154;4.498;2023-10-09T05:25:45;45.56;37.88;54.29;;
72415;Laerm;60995;52.154;4.498;2023-10-09T05:28:09;45.44;37.94;53.08;;
72415;Laerm;60995;52.154;4.498;2023-10-09T05:30:52;49.74;39.72;66.90;;
72415;Laerm;60995;52.154;4.498;2023-10-09T05:33:22;51.82;41.50;59.94;;
72415;Laerm;60995;52.154;4.498;2023-10-09T05:35:44;51.11;43.73;59.22;;
72415;Laerm;60995;52.154;4.498;2023-10-09T05:38:20;47.40;39.58;70.18;;
72415;Laerm;60995;52.154;4.498;2023-10-09T05:40:40;49.20;39.14;68.06;;
72415;Laerm;60995;52.154;4.498;2023-10-09T05:42:59;48.19;39.36;56.23;;
72415;Laerm;60995;52.154;4.498;2023-10-09T05:45:17;48.21;40.33;67.38;;
72415;Laerm;60995;52.154;4.498;2023-10-09T05:47:33;47.87;38.06;60.63;;
72415;Laerm;60995;52.154;4.498;2023-10-09T05:49:49;46.41;37.92;53.92;;
72415;Laerm;60995;52.154;4.498;2023-10-09T05:52:37;46.58;39.56;57.53;;
72415;Laerm;60995;52.154;4.498;2023-10-09T05:54:54;52.64;37.97;72.41;;
72415;Laerm;60995;52.154;4.498;2023-10-09T05:57:30;48.55;38.23;57.32;;
72415;Laerm;60995;52.154;4.498;2023-10-09T06:00:26;49.52;38.15;66.80;;
72415;Laerm;60995;52.154;4.498;2023-10-09T06:03:01;47.89;37.82;57.05;;
72415;Laerm;60995;52.154;4.498;2023-10-09T06:05:36;49.93;41.23;59.33;;
72415;Laerm;60995;52.154;4.498;2023-10-09T06:08:07;49.29;41.78;57.55;;
72415;Laerm;60995;52.154;4.498;2023-10-09T06:10:23;52.09;40.00;64.32;;
72415;Laerm;60995;52.154;4.498;2023-10-09T06:12:55;49.29;39.86;56.52;;
72415;Laerm;60995;52.154;4.498;2023-10-09T06:15:19;51.06;39.21;62.16;;
72415;Laerm;60995;52.154;4.498;2023-10-09T06:17:48;51.04;39.30;62.66;;
72415;Laerm;60995;52.154;4.498;2023-10-09T06:20:07;49.82;40.25;64.47;;
72415;Laerm;60995;52.154;4.498;2023-10-09T06:22:44;49.23;40.39;58.39;;
72415;Laerm;60995;52.154;4.498;2023-10-09T06:25:12;48.02;39.67;60.03;;
72415;Laerm;60995;52.154;4.498;2023-10-09T06:27:35;52.50;40.29;63.82;;
72415;Laerm;60995;52.154;4.498;2023-10-09T06:29:51;52.53;39.51;66.86;;
72415;Laerm;60995;52.154;4.498;2023-10-09T06:32:26;52.86;39.51;67.90;;
72415;Laerm;60995;52.154;4.498;2023-10-09T06:34:57;47.87;39.12;57.23;;
72415;Laerm;60995;52.154;4.498;2023-10-09T06:37:32;48.78;41.26;58.11;;
72415;Laerm;60995;52.154;4.498;2023-10-09T06:39:53;48.35;39.87;58.66;;
72415;Laerm;60995;52.154;4.498;2023-10-09T06:42:12;51.19;39.34;72.38;;
72415;Laerm;60995;52.154;4.498;2023-10-09T06:44:48;49.16;38.43;57.82;;
72415;Laerm;60995;52.154;4.498;2023-10-09T06:47:13;48.65;39.76;58.54;;
72415;Laerm;60995;52.154;4.498;2023-10-09T06:49:29;49.05;40.86;61.48;;
72415;Laerm;60995;52.154;4.498;2023-10-09T06:51:45;48.50;39.06;59.09;;
72415;Laerm;60995;52.154;4.498;2023-10-09T06:54:03;48.40;40.54;57.31;;
72415;Laerm;60995;52.154;4.498;2023-10-09T06:56:27;50.05;41.67;60.92;;
72415;Laerm;60995;52.154;4.498;2023-10-09T06:58:45;48.59;40.62;55.97;;
72415;Laerm;60995;52.154;4.498;2023-10-09T07:01:03;49.55;39.52;61.72;;
72415;Laerm;60995;52.154;4.498;2023-10-09T07:03:38;50.83;41.41;63.63;;
72415;Laerm;60995;52.154;4.498;2023-10-09T07:06:11;50.18;39.51;64.17;;
72415;Laerm;60995;52.154;4.498;2023-10-09T07:08:39;47.81;39.52;58.45;;
72415;Laerm;60995;52.154;4.498;2023-10-09T07:11:14;47.43;39.76;57.28;;
72415;Laerm;60995;52.154;4.498;2023-10-09T07:13:48;49.51;43.16;57.71;;
72415;Laerm;60995;52.154;4.498;2023-10-09T07:16:11;50.05;42.24;58.51;;
72415;Laerm;60995;52.154;4.498;2023-10-09T07:18:40;48.38;40.75;56.12;;
72415;Laerm;60995;52.154;4.498;2023-10-09T07:21:05;48.71;41.36;59.90;;
72415;Laerm;60995;52.154;4.498;2023-10-09T07:23:27;50.42;42.26;60.24;;
72415;Laerm;60995;52.154;4.498;2023-10-09T07:25:48;49.74;39.98;59.11;;
72415;Laerm;60995;52.154;4.498;2023-10-09T07:28:11;48.23;40.02;61.82;;
72415;Laerm;60995;52.154;4.498;2023-10-09T07:30:52;50.39;40.80;65.08;;
72415;Laerm;60995;52.154;4.498;2023-10-09T07:33:13;52.13;43.63;67.14;;
72415;Laerm;60995;52.154;4.498;2023-10-09T07:35:32;51.34;41.73;63.66;;
72415;Laerm;60995;52.154;4.498;2023-10-09T07:38:01;48.32;41.35;59.13;;
72415;Laerm;60995;52.154;4.498;2023-10-09T07:40:18;49.80;41.68;58.41;;
72415;Laerm;60995;52.154;4.498;2023-10-09T07:42:35;51.29;42.03;61.55;;
72415;Laerm;60995;52.154;4.498;2023-10-09T07:44:57;49.14;41.47;61.04;;
72415;Laerm;60995;52.154;4.498;2023-10-09T07:47:13;48.56;41.30;57.05;;
72415;Laerm;60995;52.154;4.498;2023-10-09T07:49:55;47.66;39.48;59.61;;
72415;Laerm;60995;52.154;4.498;2023-10-09T07:52:15;47.67;39.11;56.22;;
72415;Laerm;60995;52.154;4.498;2023-10-09T07:54:32;47.43;38.56;54.49;;
72415;Laerm;60995;52.154;4.498;2023-10-09T07:56:49;47.31;38.09;55.06;;
72415;Laerm;60995;52.154;4.498;2023-10-09T07:59:09;49.06;38.00;59.42;;
72415;Laerm;60995;52.154;4.498;2023-10-09T08:01:29;47.04;39.32;59.73;;
72415;Laerm;60995;52.154;4.498;2023-10-09T08:03:51;48.55;38.73;68.68;;
72415;Laerm;60995;52.154;4.498;2023-10-09T08:06:13;49.38;40.95;65.96;;
72415;Laerm;60995;52.154;4.498;2023-10-09T08:08:48;47.54;39.17;63.27;;
72415;Laerm;60995;52.154;4.498;2023-10-09T08:11:19;46.74;39.02;59.83;;
72415;Laerm;60995;52.154;4.498;2023-10-09T08:13:55;49.40;38.85;59.57;;
72415;Laerm;60995;52.154;4.498;2023-10-09T08:16:11;50.76;39.80;68.90;;
72415;Laerm;60995;52.154;4.498;2023-10-09T08:18:36;49.68;38.77;64.90;;
72415;Laerm;60995;52.154;4.498;2023-10-09T08:21:02;49.68;40.59;64.46;;
72415;Laerm;60995;52.154;4.498;2023-10-09T08:23:18;48.84;41.25;60.03;;
72415;Laerm;60995;52.154;4.498;2023-10-09T08:25:49;51.61;39.54;67.51;;
72415;Laerm;60995;52.154;4.498;2023-10-09T08:28:26;53.31;40.65;74.89;;
72415;Laerm;60995;52.154;4.498;2023-10-09T08:30:55;53.09;43.48;69.69;;
72415;Laerm;60995;52.154;4.498;2023-10-09T08:33:11;50.13;40.34;62.88;;
72415;Laerm;60995;52.154;4.498;2023-10-09T08:35:48;51.39;41.03;67.87;;
72415;Laerm;60995;52.154;4.498;2023-10-09T08:38:08;54.08;42.25;76.14;;
72415;Laerm;60995;52.154;4.498;2023-10-09T08:40:34;51.08;41.38;67.97;;
72415;Laerm;60995;52.154;4.498;2023-10-09T08:43:01;54.14;40.04;73.28;;
72415;Laerm;60995;52.154;4.498;2023-10-09T08:45:25;49.12;39.78;63.20;;
72415;Laerm;60995;52.154;4.498;2023-10-09T08:47:44;49.29;40.49;63.05;;
72415;Laerm;60995;52.154;4.498;2023-10-09T08:50:07;50.00;39.92;66.09;;
72415;Laerm;60995;52.154;4.498;2023-10-09T08:52:29;51.35;39.66;62.91;;
72415;Laerm;60995;52.154;4.498;2023-10-09T08:54:45;51.81;42.55;63.48;;
72415;Laerm;60995;52.154;4.498;2023-10-09T08:57:01;52.93;40.66;72.05;;
72415;Laerm;60995;52.154;4.498;2023-10-09T08:59:19;52.50;41.46;62.70;;
72415;Laerm;60995;52.154;4.498;2023-10-09T09:01:35;48.97;39.95;59.56;;
72415;Laerm;60995;52.154;4.498;2023-10-09T09:03:54;53.10;40.36;67.13;;
72415;Laerm;60995;52.154;4.498;2023-10-09T09:06:13;57.17;39.40;71.90;;
72415;Laerm;60995;52.154;4.498;2023-10-09T09:08:32;52.15;41.23;68.22;;
72415;Laerm;60995;52.154;4.498;2023-10-09T09:13:22;57.42;41.52;76.64;;
72415;Laerm;60995;52.154;4.498;2023-10-09T09:15:38;52.74;39.56;67.44;;
72415;Laerm;60995;52.154;4.498;2023-10-09T09:18:08;49.87;41.53;62.43;;
72415;Laerm;60995;52.154;4.498;2023-10-09T09:20:27;54.38;40.93;69.52;;
72415;Laerm;60995;52.154;4.498;2023-10-09T09:22:55;51.47;39.99;66.90;;
72415;Laerm;60995;52.154;4.498;2023-10-09T09:25:15;54.84;41.15;68.96;;
72415;Laerm;60995;52.154;4.498;2023-10-09T09:27:47;52.65;39.71;70.46;;
72415;Laerm;60995;52.154;4.498;2023-10-09T09:30:26;51.45;41.09;67.96;;
72415;Laerm;60995;52.154;4.498;2023-10-09T09:32:49;50.12;40.46;70.54;;
72415;Laerm;60995;52.154;4.498;2023-10-09T09:35:25;48.75;39.45;64.17;;
72415;Laerm;60995;52.154;4.498;2023-10-09T09:37:53;48.13;40.17;56.63;;
72415;Laerm;60995;52.154;4.498;2023-10-09T09:40:11;57.83;41.97;71.65;;
72415;Laerm;60995;52.154;4.498;2023-10-09T09:42:48;50.29;39.49;64.84;;
72415;Laerm;60995;52.154;4.498;2023-10-09T09:45:07;60.66;41.18;76.46;;
72415;Laerm;60995;52.154;4.498;2023-10-09T09:47:27;50.33;39.89;70.76;;
72415;Laerm;60995;52.154;4.498;2023-10-09T09:49:44;47.90;39.15;60.16;;
72415;Laerm;60995;52.154;4.498;2023-10-09T09:52:01;49.82;40.32;64.07;;
72415;Laerm;60995;52.154;4.498;2023-10-09T09:54:26;48.76;40.12;64.97;;
72415;Laerm;60995;52.154;4.498;2023-10-09T09:56:45;50.42;41.02;66.88;;
72415;Laerm;60995;52.154;4.498;2023-10-09T09:59:08;50.36;39.36;67.25;;
72415;Laerm;60995;52.154;4.498;2023-10-09T10:01:35;49.69;39.38;61.29;;
72415;Laerm;60995;52.154;4.498;2023-10-09T10:04:09;54.08;40.49;78.66;;
72415;Laerm;60995;52.154;4.498;2023-10-09T10:06:32;50.60;43.08;58.31;;
72415;Laerm;60995;52.154;4.498;2023-10-09T10:08:50;49.67;42.25;61.78;;
72415;Laerm;60995;52.154;4.498;2023-10-09T10:11:07;50.46;42.86;62.28;;
72415;Laerm;60995;52.154;4.498;2023-10-09T10:15:59;53.11;44.13;65.17;;
72415;Laerm;60995;52.154;4.498;2023-10-09T10:18:33;50.36;43.33;62.83;;
72415;Laerm;60995;52.154;4.498;2023-10-09T10:23:32;49.97;42.36;59.65;;
72415;Laerm;60995;52.154;4.498;2023-10-09T10:25:51;49.56;42.46;65.28;;
72415;Laerm;60995;52.154;4.498;2023-10-09T10:28:24;49.61;41.92;57.36;;
72415;Laerm;60995;52.154;4.498;2023-10-09T10:30:58;47.88;41.62;62.45;;
72415;Laerm;60995;52.154;4.498;2023-10-09T10:33:16;48.50;42.11;56.62;;
72415;Laerm;60995;52.154;4.498;2023-10-09T10:35:32;50.35;42.66;60.37;;
72415;Laerm;60995;52.154;4.498;2023-10-09T10:37:55;49.50;42.95;56.60;;
72415;Laerm;60995;52.154;4.498;2023-10-09T10:40:37;48.71;42.48;62.11;;
72415;Laerm;60995;52.154;4.498;2023-10-09T10:43:02;50.23;43.63;69.92;;
72415;Laerm;60995;52.154;4.498;2023-10-09T10:45:42;48.67;41.56;63.05;;
72415;Laerm;60995;52.154;4.498;2023-10-09T10:48:02;49.66;43.28;62.66;;
72415;Laerm;60995;52.154;4.498;2023-10-09T10:50:25;49.18;42.08;56.36;;
72415;Laerm;60995;52.154;4.498;2023-10-09T10:52:47;50.78;41.58;60.27;;
72415;Laerm;60995;52.154;4.498;2023-10-09T10:55:14;55.28;42.71;68.02;;
72415;Laerm;60995;52.154;4.498;2023-10-09T10:57:53;49.35;40.76;60.34;;
72415;Laerm;60995;52.154;4.498;2023-10-09T11:00:16;52.40;41.06;67.96;;
72415;Laerm;60995;52.154;4.498;2023-10-09T11:02:51;51.30;38.06;66.90;;
72415;Laerm;60995;52.154;4.498;2023-10-09T11:05:08;54.27;40.93;70.95;;
72415;Laerm;60995;52.154;4.498;2023-10-09T11:07:30;47.69;38.32;56.53;;
72415;Laerm;60995;52.154;4.498;2023-10-09T11:12:21;50.75;40.18;65.80;;
72415;Laerm;60995;52.154;4.498;2023-10-09T11:14:48;48.72;38.84;58.56;;
72415;Laerm;60995;52.154;4.498;2023-10-09T11:17:25;54.28;42.30;70.24;;
72415;Laerm;60995;52.154;4.498;2023-10-09T11:19:42;50.38;44.49;57.14;;
72415;Laerm;60995;52.154;4.498;2023-10-09T11:22:01;50.24;42.06;63.49;;
72415;Laerm;60995;52.154;4.498;2023-10-09T11:24:27;49.59;43.39;58.46;;
72415;Laerm;60995;52.154;4.498;2023-10-09T11:26:49;51.24;42.47;64.56;;
72415;Laerm;60995;52.154;4.498;2023-10-09T11:29:14;49.49;41.44;57.22;;
72415;Laerm;60995;52.154;4.498;2023-10-09T11:31:32;51.00;43.57;62.43;;
72415;Laerm;60995;52.154;4.498;2023-10-09T11:33:52;50.67;41.99;70.58;;
72415;Laerm;60995;52.154;4.498;2023-10-09T11:36:10;52.85;42.87;72.63;;
72415;Laerm;60995;52.154;4.498;2023-10-09T11:38:36;50.19;40.28;65.19;;
72415;Laerm;60995;52.154;4.498;2023-10-09T11:40:52;49.01;41.95;54.82;;
72415;Laerm;60995;52.154;4.498;2023-10-09T11:43:08;53.59;39.12;68.58;;
72415;Laerm;60995;52.154;4.498;2023-10-09T11:45:32;53.61;40.04;70.03;;
72415;Laerm;60995;52.154;4.498;2023-10-09T11:47:55;48.81;41.38;57.38;;
72415;Laerm;60995;52.154;4.498;2023-10-09T11:50:14;48.38;41.71;56.25;;
72415;Laerm;60995;52.154;4.498;2023-10-09T11:52:33;48.51;41.75;55.84;;
72415;Laerm;60995;52.154;4.498;2023-10-09T11:54:53;48.35;41.20;59.54;;
72415;Laerm;60995;52.154;4.498;2023-10-09T11:57:12;49.27;40.07;63.29;;
72415;Laerm;60995;52.154;4.498;2023-10-09T11:59:32;49.68;40.70;60.74;;
72415;Laerm;60995;52.154;4.498;2023-10-09T12:01:55;48.57;40.44;56.93;;
72415;Laerm;60995;52.154;4.498;2023-10-09T12:04:16;49.73;42.16;61.11;;
72415;Laerm;60995;52.154;4.498;2023-10-09T12:06:33;48.97;42.27;55.89;;
72415;Laerm;60995;52.154;4.498;2023-10-09T12:08:51;48.21;40.05;56.70;;
72415;Laerm;60995;52.154;4.498;2023-10-09T12:11:10;48.42;38.36;57.32;;
72415;Laerm;60995;52.154;4.498;2023-10-09T12:13:27;47.98;38.34;56.84;;
72415;Laerm;60995;52.154;4.498;2023-10-09T12:15:43;51.80;38.11;72.69;;
72415;Laerm;60995;52.154;4.498;2023-10-09T12:18:05;51.02;39.27;62.90;;
72415;Laerm;60995;52.154;4.498;2023-10-09T12:20:25;50.30;38.93;59.43;;
72415;Laerm;60995;52.154;4.498;2023-10-09T12:22:47;48.31;39.58;58.58;;
72415;Laerm;60995;52.154;4.498;2023-10-09T12:25:04;47.80;38.18;55.32;;
72415;Laerm;60995;52.154;4.498;2023-10-09T12:27:25;48.04;39.63;56.26;;
72415;Laerm;60995;52.154;4.498;2023-10-09T12:29:44;51.96;42.40;66.25;;
72415;Laerm;60995;52.154;4.498;2023-10-09T12:32:01;49.97;42.48;67.95;;
72415;Laerm;60995;52.154;4.498;2023-10-09T12:34:19;50.13;42.78;57.98;;
72415;Laerm;60995;52.154;4.498;2023-10-09T12:36:35;47.21;38.93;56.43;;
72415;Laerm;60995;52.154;4.498;2023-10-09T12:38:53;48.18;38.84;63.62;;
72415;Laerm;60995;52.154;4.498;2023-10-09T12:41:14;51.34;42.00;64.29;;
72415;Laerm;60995;52.154;4.498;2023-10-09T12:43:41;49.94;38.73;60.04;;
72415;Laerm;60995;52.154;4.498;2023-10-09T12:45:58;49.06;39.75;63.64;;
72415;Laerm;60995;52.154;4.498;2023-10-09T12:48:15;49.98;42.33;57.54;;
72415;Laerm;60995;52.154;4.498;2023-10-09T12:50:33;48.36;40.04;57.99;;
72415;Laerm;60995;52.154;4.498;2023-10-09T12:52:50;50.90;40.50;62.21;;
72415;Laerm;60995;52.154;4.498;2023-10-09T12:55:07;49.68;42.47;59.25;;
72415;Laerm;60995;52.154;4.498;2023-10-09T12:57:25;49.56;43.60;57.63;;
72415;Laerm;60995;52.154;4.498;2023-10-09T12:59:42;48.00;41.51;55.23;;
72415;Laerm;60995;52.154;4.498;2023-10-09T13:02:01;51.05;43.85;58.30;;
72415;Laerm;60995;52.154;4.498;2023-10-09T13:04:21;51.14;40.06;60.74;;
72415;Laerm;60995;52.154;4.498;2023-10-09T13:06:39;48.61;39.19;60.90;;
72415;Laerm;60995;52.154;4.498;2023-10-09T13:09:01;48.74;40.14;58.97;;
72415;Laerm;60995;52.154;4.498;2023-10-09T13:11:22;49.88;39.92;66.30;;
72415;Laerm;60995;52.154;4.498;2023-10-09T13:13:42;49.19;40.29;69.15;;
72415;Laerm;60995;52.154;4.498;2023-10-09T13:15:59;53.43;42.11;72.98;;
72415;Laerm;60995;52.154;4.498;2023-10-09T13:18:15;52.65;41.14;66.73;;
72415;Laerm;60995;52.154;4.498;2023-10-09T13:20:31;48.53;38.88;57.49;;
72415;Laerm;60995;52.154;4.498;2023-10-09T13:22:48;51.25;39.83;62.69;;
72415;Laerm;60995;52.154;4.498;2023-10-09T13:25:09;50.12;39.38;62.53;;
72415;Laerm;60995;52.154;4.498;2023-10-09T13:27:32;51.70;39.60;63.75;;
72415;Laerm;60995;52.154;4.498;2023-10-09T13:29:51;50.84;40.24;63.62;;